Kenna, New Mexico
Current Conditions -  °F | °C
As of 10:56 PM on Tuesday 27 Jan 2015 (Local Time) from K4MR Reporting Station
Clear Clear  
Wind Chill: 52°   Ceiling: Unl
Heat Index: 52°   Visibility: 10mi
Dew Point: 38°   Wind: 16mph
Humidity: 58%   Direction: 230°SW
Pressure: 30.17"   Gusts: NA
Location:  33.84°N, 103.77°W
Report Text: K4MR 280556Z AUTO 23014KT 10SM CLR 11/03 A3017 RMK AO2 SLP186 T01110031 10167 20085 56003
Loading
Personal Weather Stations






























Interactive Weather Map New forecast layout! Learn more

10-Day Weather Forecast

Advertisements
Track Severe Weather on mobile